sensor_id;sensor_type;location;lat;lon;timestamp;P1;durP1;ratioP1;P2;durP2;ratioP2
42092;SDS011;28974;50.316;18.960;2023-08-21T00:10:59;44.90;;;25.92;;
42092;SDS011;28974;50.316;18.960;2023-08-21T00:22:59;40.88;;;26.27;;
42092;SDS011;28974;50.316;18.960;2023-08-21T00:34:59;38.17;;;25.67;;
42092;SDS011;28974;50.316;18.960;2023-08-21T00:47:00;54.78;;;28.75;;
42092;SDS011;28974;50.316;18.960;2023-08-21T00:59:00;54.08;;;27.80;;
42092;SDS011;28974;50.316;18.960;2023-08-21T01:11:14;47.15;;;28.55;;
42092;SDS011;28974;50.316;18.960;2023-08-21T01:23:28;47.50;;;26.70;;
42092;SDS011;28974;50.316;18.960;2023-08-21T01:35:28;50.35;;;26.20;;
42092;SDS011;28974;50.316;18.960;2023-08-21T01:47:31;54.58;;;29.42;;
42092;SDS011;28974;50.316;18.960;2023-08-21T01:59:31;56.65;;;31.55;;
42092;SDS011;28974;50.316;18.960;2023-08-21T02:11:31;50.05;;;30.17;;
42092;SDS011;28974;50.316;18.960;2023-08-21T02:23:32;63.78;;;31.48;;
42092;SDS011;28974;50.316;18.960;2023-08-21T02:35:32;49.28;;;28.83;;
42092;SDS011;28974;50.316;18.960;2023-08-21T02:47:33;41.50;;;28.15;;
42092;SDS011;28974;50.316;18.960;2023-08-21T02:59:33;43.05;;;27.42;;
42092;SDS011;28974;50.316;18.960;2023-08-21T03:11:33;43.70;;;27.92;;
42092;SDS011;28974;50.316;18.960;2023-08-21T03:23:33;41.97;;;27.95;;
42092;SDS011;28974;50.316;18.960;2023-08-21T03:35:39;47.38;;;27.70;;
42092;SDS011;28974;50.316;18.960;2023-08-21T03:47:40;44.40;;;29.27;;
42092;SDS011;28974;50.316;18.960;2023-08-21T03:59:49;55.13;;;31.73;;
42092;SDS011;28974;50.316;18.960;2023-08-21T04:11:49;49.38;;;30.08;;
42092;SDS011;28974;50.316;18.960;2023-08-21T04:23:49;49.47;;;30.65;;
42092;SDS011;28974;50.316;18.960;2023-08-21T04:35:50;48.13;;;30.92;;
42092;SDS011;28974;50.316;18.960;2023-08-21T04:47:50;43.85;;;27.88;;
42092;SDS011;28974;50.316;18.960;2023-08-21T04:59:50;46.08;;;29.15;;
42092;SDS011;28974;50.316;18.960;2023-08-21T05:11:56;48.80;;;29.40;;
42092;SDS011;28974;50.316;18.960;2023-08-21T05:24:02;43.83;;;28.77;;
42092;SDS011;28974;50.316;18.960;2023-08-21T05:48:34;49.45;;;27.60;;
42092;SDS011;28974;50.316;18.960;2023-08-21T06:00:35;62.67;;;26.77;;
42092;SDS011;28974;50.316;18.960;2023-08-21T06:12:37;43.88;;;26.48;;
42092;SDS011;28974;50.316;18.960;2023-08-21T06:24:38;46.70;;;27.23;;
42092;SDS011;28974;50.316;18.960;2023-08-21T06:36:42;58.15;;;29.85;;
42092;SDS011;28974;50.316;18.960;2023-08-21T06:48:43;41.08;;;23.90;;
42092;SDS011;28974;50.316;18.960;2023-08-21T07:00:43;40.15;;;24.73;;
42092;SDS011;28974;50.316;18.960;2023-08-21T07:12:43;53.72;;;26.40;;
42092;SDS011;28974;50.316;18.960;2023-08-21T07:24:44;61.28;;;31.13;;
42092;SDS011;28974;50.316;18.960;2023-08-21T07:36:44;47.30;;;29.25;;
42092;SDS011;28974;50.316;18.960;2023-08-21T07:48:45;48.70;;;28.85;;
42092;SDS011;28974;50.316;18.960;2023-08-21T08:00:45;44.97;;;29.43;;
42092;SDS011;28974;50.316;18.960;2023-08-21T08:12:45;51.50;;;29.50;;
42092;SDS011;28974;50.316;18.960;2023-08-21T08:24:46;49.40;;;26.63;;
42092;SDS011;28974;50.316;18.960;2023-08-21T08:36:46;64.95;;;29.42;;
42092;SDS011;28974;50.316;18.960;2023-08-21T08:48:46;49.63;;;27.63;;
42092;SDS011;28974;50.316;18.960;2023-08-21T09:00:46;40.42;;;28.08;;
42092;SDS011;28974;50.316;18.960;2023-08-21T09:12:51;51.25;;;27.50;;
42092;SDS011;28974;50.316;18.960;2023-08-21T09:24:59;37.53;;;25.85;;
42092;SDS011;28974;50.316;18.960;2023-08-21T09:37:00;45.22;;;26.38;;
42092;SDS011;28974;50.316;18.960;2023-08-21T09:49:00;30.40;;;21.95;;
42092;SDS011;28974;50.316;18.960;2023-08-21T10:01:06;36.83;;;23.33;;
42092;SDS011;28974;50.316;18.960;2023-08-21T10:13:14;33.78;;;22.80;;
42092;SDS011;28974;50.316;18.960;2023-08-21T10:25:15;55.40;;;20.00;;
42092;SDS011;28974;50.316;18.960;2023-08-21T10:37:36;37.25;;;20.70;;
42092;SDS011;28974;50.316;18.960;2023-08-21T11:01:57;39.20;;;23.33;;
42092;SDS011;28974;50.316;18.960;2023-08-21T11:13:57;43.83;;;22.45;;
42092;SDS011;28974;50.316;18.960;2023-08-21T11:25:57;43.75;;;24.38;;
42092;SDS011;28974;50.316;18.960;2023-08-21T11:37:57;46.13;;;27.00;;
42092;SDS011;28974;50.316;18.960;2023-08-21T11:50:02;44.45;;;25.80;;
42092;SDS011;28974;50.316;18.960;2023-08-21T12:02:07;47.58;;;25.70;;
42092;SDS011;28974;50.316;18.960;2023-08-21T12:14:11;50.10;;;27.30;;
42092;SDS011;28974;50.316;18.960;2023-08-21T12:26:12;47.67;;;29.38;;
42092;SDS011;28974;50.316;18.960;2023-08-21T12:38:12;54.40;;;28.10;;
42092;SDS011;28974;50.316;18.960;2023-08-21T12:50:13;54.97;;;30.05;;
42092;SDS011;28974;50.316;18.960;2023-08-21T13:02:13;47.10;;;28.75;;
42092;SDS011;28974;50.316;18.960;2023-08-21T13:14:13;46.63;;;23.38;;
42092;SDS011;28974;50.316;18.960;2023-08-21T13:26:13;30.90;;;19.42;;
42092;SDS011;28974;50.316;18.960;2023-08-21T13:38:19;25.15;;;17.52;;
42092;SDS011;28974;50.316;18.960;2023-08-21T13:50:19;27.00;;;15.52;;
42092;SDS011;28974;50.316;18.960;2023-08-21T14:02:20;25.42;;;15.27;;
42092;SDS011;28974;50.316;18.960;2023-08-21T14:14:20;24.63;;;14.65;;
42092;SDS011;28974;50.316;18.960;2023-08-21T14:26:20;21.10;;;15.85;;
42092;SDS011;28974;50.316;18.960;2023-08-21T14:38:21;21.20;;;15.98;;
42092;SDS011;28974;50.316;18.960;2023-08-21T14:50:22;19.17;;;12.63;;
42092;SDS011;28974;50.316;18.960;2023-08-21T15:02:22;20.52;;;13.85;;
42092;SDS011;28974;50.316;18.960;2023-08-21T15:14:22;14.80;;;12.40;;
42092;SDS011;28974;50.316;18.960;2023-08-21T15:26:22;19.88;;;14.52;;
42092;SDS011;28974;50.316;18.960;2023-08-21T15:38:23;18.30;;;13.48;;
42092;SDS011;28974;50.316;18.960;2023-08-21T15:50:23;19.55;;;14.77;;
42092;SDS011;28974;50.316;18.960;2023-08-21T16:02:23;24.70;;;20.10;;
42092;SDS011;28974;50.316;18.960;2023-08-21T16:14:24;23.67;;;14.45;;
42092;SDS011;28974;50.316;18.960;2023-08-21T16:26:24;19.90;;;13.25;;
42092;SDS011;28974;50.316;18.960;2023-08-21T16:38:24;17.05;;;13.60;;
42092;SDS011;28974;50.316;18.960;2023-08-21T16:50:24;15.18;;;12.07;;
42092;SDS011;28974;50.316;18.960;2023-08-21T17:02:25;19.50;;;12.90;;
42092;SDS011;28974;50.316;18.960;2023-08-21T17:14:26;16.02;;;12.65;;
42092;SDS011;28974;50.316;18.960;2023-08-21T17:26:26;19.67;;;13.30;;
42092;SDS011;28974;50.316;18.960;2023-08-21T17:38:27;21.17;;;14.77;;
42092;SDS011;28974;50.316;18.960;2023-08-21T17:50:27;20.42;;;13.80;;
42092;SDS011;28974;50.316;18.960;2023-08-21T18:02:27;19.83;;;13.23;;
42092;SDS011;28974;50.316;18.960;2023-08-21T18:14:28;20.73;;;13.55;;
42092;SDS011;28974;50.316;18.960;2023-08-21T18:26:30;20.52;;;14.48;;
42092;SDS011;28974;50.316;18.960;2023-08-21T18:38:30;18.13;;;14.82;;
42092;SDS011;28974;50.316;18.960;2023-08-21T18:50:34;18.85;;;15.32;;
42092;SDS011;28974;50.316;18.960;2023-08-21T19:02:35;20.98;;;14.57;;
42092;SDS011;28974;50.316;18.960;2023-08-21T19:14:35;21.25;;;15.23;;
42092;SDS011;28974;50.316;18.960;2023-08-21T19:26:35;23.10;;;14.20;;
42092;SDS011;28974;50.316;18.960;2023-08-21T19:38:36;21.13;;;14.90;;
42092;SDS011;28974;50.316;18.960;2023-08-21T19:50:36;26.90;;;14.90;;
42092;SDS011;28974;50.316;18.960;2023-08-21T20:02:36;19.95;;;14.00;;
42092;SDS011;28974;50.316;18.960;2023-08-21T20:14:37;21.10;;;14.40;;
42092;SDS011;28974;50.316;18.960;2023-08-21T20:26:37;18.15;;;14.30;;
42092;SDS011;28974;50.316;18.960;2023-08-21T20:38:37;18.33;;;13.20;;
42092;SDS011;28974;50.316;18.960;2023-08-21T20:50:38;20.83;;;13.77;;
42092;SDS011;28974;50.316;18.960;2023-08-21T21:02:38;17.73;;;11.95;;
42092;SDS011;28974;50.316;18.960;2023-08-21T21:14:38;21.70;;;15.50;;
42092;SDS011;28974;50.316;18.960;2023-08-21T21:26:39;20.05;;;13.88;;
42092;SDS011;28974;50.316;18.960;2023-08-21T21:38:39;15.10;;;10.67;;
42092;SDS011;28974;50.316;18.960;2023-08-21T21:50:40;20.15;;;14.20;;
42092;SDS011;28974;50.316;18.960;2023-08-21T22:02:40;19.20;;;12.75;;
42092;SDS011;28974;50.316;18.960;2023-08-21T22:14:40;21.33;;;14.23;;
42092;SDS011;28974;50.316;18.960;2023-08-21T22:26:40;19.52;;;12.68;;
42092;SDS011;28974;50.316;18.960;2023-08-21T22:38:41;18.27;;;12.50;;
42092;SDS011;28974;50.316;18.960;2023-08-21T22:50:41;18.20;;;12.60;;
42092;SDS011;28974;50.316;18.960;2023-08-21T23:02:41;23.65;;;14.35;;
42092;SDS011;28974;50.316;18.960;2023-08-21T23:14:42;21.77;;;13.85;;
42092;SDS011;28974;50.316;18.960;2023-08-21T23:26:42;33.55;;;17.83;;
42092;SDS011;28974;50.316;18.960;2023-08-21T23:38:42;25.77;;;16.02;;
42092;SDS011;28974;50.316;18.960;2023-08-21T23:50:42;29.45;;;16.17;;
